Terminal Aerodrome Forecast
Issued by NWS

Home | Current Version | Previous Version | Graphics & Text | Print | Product List | Glossary On
Versions: 1 2 3 4 5 6 7 8 9 10 11 12 13 14 15 16 17 18 19 20 21 22 23 24 25 26 27
000
FTUS43 KBIS 040550
TAFJMS
TAF
KJMS 040550Z 0406/0506 16010KT P6SM SCT220
     FM040900 13007KT 4SM BR SCT003 BKN020
      TEMPO 0410/0414 1SM BR BKN007
     FM041500 14011KT P6SM VCSH SCT030
     FM041900 18011KT P6SM SCT060
     FM050000 13009KT P6SM SCT035 SCT090=

USA.gov is the U.S. government's official web portal to all federal, state and local government web resources and services.